sensor_id;sensor_type;location;lat;lon;timestamp;pressure;altitude;pressure_sealevel;temperature;humidity
78671;BME280;68277;52.724;6.516;2023-12-20T00:01:06;101337.38;;;4.85;100.00
78671;BME280;68277;52.724;6.516;2023-12-20T00:03:31;101359.44;;;5.07;100.00
78671;BME280;68277;52.724;6.516;2023-12-20T00:05:57;101339.22;;;4.94;100.00
78671;BME280;68277;52.724;6.516;2023-12-20T00:08:23;101350.59;;;4.98;100.00
78671;BME280;68277;52.724;6.516;2023-12-20T00:10:49;101346.28;;;5.04;100.00
78671;BME280;68277;52.724;6.516;2023-12-20T00:13:14;101369.25;;;5.29;100.00
78671;BME280;68277;52.724;6.516;2023-12-20T00:15:40;101335.84;;;5.12;100.00
78671;BME280;68277;52.724;6.516;2023-12-20T00:18:05;101349.03;;;5.21;100.00
78671;BME280;68277;52.724;6.516;2023-12-20T00:20:49;101341.09;;;5.10;100.00
78671;BME280;68277;52.724;6.516;2023-12-20T00:23:15;101343.69;;;5.06;100.00
78671;BME280;68277;52.724;6.516;2023-12-20T00:25:40;101353.31;;;5.11;100.00
78671;BME280;68277;52.724;6.516;2023-12-20T00:28:06;101332.16;;;4.87;100.00
78671;BME280;68277;52.724;6.516;2023-12-20T00:30:31;101325.97;;;4.80;100.00
78671;BME280;68277;52.724;6.516;2023-12-20T00:32:57;101306.66;;;4.68;100.00
78671;BME280;68277;52.724;6.516;2023-12-20T00:35:23;101338.22;;;4.80;100.00
78671;BME280;68277;52.724;6.516;2023-12-20T00:37:48;101310.97;;;4.64;100.00
78671;BME280;68277;52.724;6.516;2023-12-20T00:40:14;101357.50;;;4.88;100.00
78671;BME280;68277;52.724;6.516;2023-12-20T00:42:39;101350.50;;;4.85;100.00
78671;BME280;68277;52.724;6.516;2023-12-20T00:45:05;101348.72;;;4.80;100.00
78671;BME280;68277;52.724;6.516;2023-12-20T00:47:31;101354.88;;;4.88;100.00
78671;BME280;68277;52.724;6.516;2023-12-20T00:49:57;101342.63;;;4.84;100.00
78671;BME280;68277;52.724;6.516;2023-12-20T00:52:23;101299.63;;;4.64;100.00
78671;BME280;68277;52.724;6.516;2023-12-20T00:54:50;101326.81;;;4.75;100.00
78671;BME280;68277;52.724;6.516;2023-12-20T00:57:16;101349.66;;;4.88;100.00
78671;BME280;68277;52.724;6.516;2023-12-20T00:59:41;101297.00;;;4.64;100.00
78671;BME280;68277;52.724;6.516;2023-12-20T01:02:07;101344.41;;;4.87;100.00
78671;BME280;68277;52.724;6.516;2023-12-20T01:04:32;101322.47;;;4.78;100.00
78671;BME280;68277;52.724;6.516;2023-12-20T01:06:58;101292.59;;;4.57;100.00
78671;BME280;68277;52.724;6.516;2023-12-20T01:09:24;101342.63;;;4.85;100.00
78671;BME280;68277;52.724;6.516;2023-12-20T01:11:53;101294.31;;;4.59;100.00
78671;BME280;68277;52.724;6.516;2023-12-20T01:14:18;101305.75;;;4.66;100.00
78671;BME280;68277;52.724;6.516;2023-12-20T01:16:44;101310.19;;;4.76;100.00
78671;BME280;68277;52.724;6.516;2023-12-20T01:19:10;101343.63;;;5.00;100.00
78671;BME280;68277;52.724;6.516;2023-12-20T01:21:35;101303.19;;;4.70;100.00
78671;BME280;68277;52.724;6.516;2023-12-20T01:24:01;101346.22;;;4.94;100.00
78671;BME280;68277;52.724;6.516;2023-12-20T01:26:28;101336.53;;;4.88;100.00
78671;BME280;68277;52.724;6.516;2023-12-20T01:28:54;101269.00;;;4.60;100.00
78671;BME280;68277;52.724;6.516;2023-12-20T01:31:19;101291.88;;;4.79;100.00
78671;BME280;68277;52.724;6.516;2023-12-20T01:33:45;101278.75;;;4.74;100.00
78671;BME280;68277;52.724;6.516;2023-12-20T01:36:11;101278.75;;;4.73;100.00
78671;BME280;68277;52.724;6.516;2023-12-20T01:38:37;101303.34;;;4.92;100.00
78671;BME280;68277;52.724;6.516;2023-12-20T01:41:03;101297.22;;;4.90;100.00
78671;BME280;68277;52.724;6.516;2023-12-20T01:43:29;101294.53;;;4.82;100.00
78671;BME280;68277;52.724;6.516;2023-12-20T01:45:56;101300.72;;;4.95;100.00
78671;BME280;68277;52.724;6.516;2023-12-20T01:48:23;101288.44;;;4.86;100.00
78671;BME280;68277;52.724;6.516;2023-12-20T01:50:50;101285.75;;;4.78;100.00
78671;BME280;68277;52.724;6.516;2023-12-20T01:53:16;101283.97;;;4.73;100.00
78671;BME280;68277;52.724;6.516;2023-12-20T01:55:43;101305.09;;;4.91;100.00
78671;BME280;68277;52.724;6.516;2023-12-20T01:58:10;101314.75;;;4.98;100.00
78671;BME280;68277;52.724;6.516;2023-12-20T02:00:36;101313.03;;;5.00;100.00
78671;BME280;68277;52.724;6.516;2023-12-20T02:03:03;101257.75;;;4.73;100.00
78671;BME280;68277;52.724;6.516;2023-12-20T02:05:34;101297.28;;;5.00;100.00
78671;BME280;68277;52.724;6.516;2023-12-20T02:08:00;101261.28;;;4.75;100.00
78671;BME280;68277;52.724;6.516;2023-12-20T02:10:26;101264.81;;;4.80;100.00
78671;BME280;68277;52.724;6.516;2023-12-20T02:12:52;101270.13;;;4.89;100.00
78671;BME280;68277;52.724;6.516;2023-12-20T02:15:18;101314.03;;;5.16;100.00
78671;BME280;68277;52.724;6.516;2023-12-20T02:17:44;101257.03;;;4.95;100.00
78671;BME280;68277;52.724;6.516;2023-12-20T02:20:10;101280.75;;;5.12;100.00
78671;BME280;68277;52.724;6.516;2023-12-20T02:22:36;101272.88;;;5.10;100.00
78671;BME280;68277;52.724;6.516;2023-12-20T02:25:01;101259.78;;;5.10;100.00
78671;BME280;68277;52.724;6.516;2023-12-20T02:27:27;101260.66;;;5.12;100.00
78671;BME280;68277;52.724;6.516;2023-12-20T02:29:55;101263.31;;;5.15;100.00
78671;BME280;68277;52.724;6.516;2023-12-20T02:32:21;101283.53;;;5.34;100.00
78671;BME280;68277;52.724;6.516;2023-12-20T02:34:48;101241.44;;;5.13;100.00
78671;BME280;68277;52.724;6.516;2023-12-20T02:37:14;101290.56;;;5.37;100.00
78671;BME280;68277;52.724;6.516;2023-12-20T02:39:39;101266.84;;;5.22;100.00
78671;BME280;68277;52.724;6.516;2023-12-20T02:42:05;101285.31;;;5.37;100.00
78671;BME280;68277;52.724;6.516;2023-12-20T02:44:30;101244.06;;;5.15;100.00
78671;BME280;68277;52.724;6.516;2023-12-20T02:46:56;101239.66;;;5.14;100.00
78671;BME280;68277;52.724;6.516;2023-12-20T02:49:21;101247.59;;;5.20;100.00
78671;BME280;68277;52.724;6.516;2023-12-20T02:51:50;101257.22;;;5.22;100.00
78671;BME280;68277;52.724;6.516;2023-12-20T02:54:16;101237.06;;;5.17;100.00
78671;BME280;68277;52.724;6.516;2023-12-20T02:56:41;101265.13;;;5.28;100.00
78671;BME280;68277;52.724;6.516;2023-12-20T02:59:07;101227.44;;;5.13;100.00
78671;BME280;68277;52.724;6.516;2023-12-20T03:01:34;101242.34;;;5.21;100.00
78671;BME280;68277;52.724;6.516;2023-12-20T03:04:00;101264.34;;;5.41;100.00
78671;BME280;68277;52.724;6.516;2023-12-20T03:06:25;101268.69;;;5.41;100.00
78671;BME280;68277;52.724;6.516;2023-12-20T03:08:51;101210.81;;;5.11;100.00
78671;BME280;68277;52.724;6.516;2023-12-20T03:11:17;101244.13;;;5.27;100.00
78671;BME280;68277;52.724;6.516;2023-12-20T03:13:43;101234.50;;;5.24;100.00
78671;BME280;68277;52.724;6.516;2023-12-20T03:16:12;101252.94;;;5.39;100.00
78671;BME280;68277;52.724;6.516;2023-12-20T03:18:39;101215.19;;;5.13;100.00
78671;BME280;68277;52.724;6.516;2023-12-20T03:21:05;101257.28;;;5.37;100.00
78671;BME280;68277;52.724;6.516;2023-12-20T03:23:32;101244.16;;;5.31;100.00
78671;BME280;68277;52.724;6.516;2023-12-20T03:25:59;101243.28;;;5.31;100.00
78671;BME280;68277;52.724;6.516;2023-12-20T03:28:25;101233.59;;;5.25;100.00
78671;BME280;68277;52.724;6.516;2023-12-20T03:30:51;101225.69;;;5.16;100.00
78671;BME280;68277;52.724;6.516;2023-12-20T03:33:16;101237.06;;;5.17;100.00
78671;BME280;68277;52.724;6.516;2023-12-20T03:35:42;101221.25;;;5.05;100.00
78671;BME280;68277;52.724;6.516;2023-12-20T03:38:07;101234.44;;;5.17;100.00
78671;BME280;68277;52.724;6.516;2023-12-20T03:40:33;101205.53;;;5.06;100.00
78671;BME280;68277;52.724;6.516;2023-12-20T03:42:59;101228.34;;;5.21;100.00
78671;BME280;68277;52.724;6.516;2023-12-20T03:45:24;101211.75;;;5.22;100.00
78671;BME280;68277;52.724;6.516;2023-12-20T03:47:50;101231.06;;;5.34;100.00
78671;BME280;68277;52.724;6.516;2023-12-20T03:50:22;101238.09;;;5.41;100.00
78671;BME280;68277;52.724;6.516;2023-12-20T03:52:47;101217.03;;;5.31;100.00
78671;BME280;68277;52.724;6.516;2023-12-20T03:55:13;101237.25;;;5.51;100.00
78671;BME280;68277;52.724;6.516;2023-12-20T03:57:38;101213.59;;;5.45;100.00
78671;BME280;68277;52.724;6.516;2023-12-20T04:00:05;101196.94;;;5.37;100.00
78671;BME280;68277;52.724;6.516;2023-12-20T04:02:41;101234.63;;;5.54;100.00
78671;BME280;68277;52.724;6.516;2023-12-20T04:05:08;101209.19;;;5.35;100.00
78671;BME280;68277;52.724;6.516;2023-12-20T04:07:37;101202.16;;;5.31;100.00
78671;BME280;68277;52.724;6.516;2023-12-20T04:10:03;101200.44;;;5.32;100.00
78671;BME280;68277;52.724;6.516;2023-12-20T04:12:32;101245.13;;;5.56;100.00
78671;BME280;68277;52.724;6.516;2023-12-20T04:14:58;101231.13;;;5.54;100.00
78671;BME280;68277;52.724;6.516;2023-12-20T04:17:23;101227.66;;;5.60;100.00
78671;BME280;68277;52.724;6.516;2023-12-20T04:19:49;101199.63;;;5.48;100.00
78671;BME280;68277;52.724;6.516;2023-12-20T04:22:15;101195.22;;;5.47;100.00
78671;BME280;68277;52.724;6.516;2023-12-20T04:24:41;101171.63;;;5.44;100.00
78671;BME280;68277;52.724;6.516;2023-12-20T04:27:09;101204.06;;;5.69;100.00
78671;BME280;68277;52.724;6.516;2023-12-20T04:29:35;101181.25;;;5.51;100.00
78671;BME280;68277;52.724;6.516;2023-12-20T04:32:00;101210.19;;;5.75;100.00
78671;BME280;68277;52.724;6.516;2023-12-20T04:34:26;101217.19;;;5.75;100.00
78671;BME280;68277;52.724;6.516;2023-12-20T04:36:52;101167.25;;;5.53;100.00
78671;BME280;68277;52.724;6.516;2023-12-20T04:39:18;101179.53;;;5.58;100.00
78671;BME280;68277;52.724;6.516;2023-12-20T04:41:44;101201.44;;;5.70;100.00
78671;BME280;68277;52.724;6.516;2023-12-20T04:44:09;101196.16;;;5.64;100.00
78671;BME280;68277;52.724;6.516;2023-12-20T04:46:35;101197.06;;;5.69;100.00
78671;BME280;68277;52.724;6.516;2023-12-20T04:49:01;101189.19;;;5.71;100.00
78671;BME280;68277;52.724;6.516;2023-12-20T04:51:34;101203.19;;;5.77;100.00
78671;BME280;68277;52.724;6.516;2023-12-20T04:54:01;101204.97;;;5.72;100.00
78671;BME280;68277;52.724;6.516;2023-12-20T04:56:26;101208.47;;;5.76;100.00
78671;BME280;68277;52.724;6.516;2023-12-20T04:58:52;101180.41;;;5.58;100.00
78671;BME280;68277;52.724;6.516;2023-12-20T05:01:19;101201.44;;;5.75;100.00
78671;BME280;68277;52.724;6.516;2023-12-20T05:03:45;101188.31;;;5.69;100.00
78671;BME280;68277;52.724;6.516;2023-12-20T05:06:11;101171.66;;;5.62;100.00
78671;BME280;68277;52.724;6.516;2023-12-20T05:08:43;101162.88;;;5.57;100.00
78671;BME280;68277;52.724;6.516;2023-12-20T05:11:09;101187.44;;;5.65;100.00
78671;BME280;68277;52.724;6.516;2023-12-20T05:13:34;101202.34;;;5.78;100.00
78671;BME280;68277;52.724;6.516;2023-12-20T05:16:00;101172.53;;;5.58;100.00
78671;BME280;68277;52.724;6.516;2023-12-20T05:18:25;101189.16;;;5.66;100.00
78671;BME280;68277;52.724;6.516;2023-12-20T05:20:51;101162.00;;;5.53;100.00
78671;BME280;68277;52.724;6.516;2023-12-20T05:23:17;101182.19;;;5.73;100.00
78671;BME280;68277;52.724;6.516;2023-12-20T05:25:43;101159.44;;;5.67;100.00
78671;BME280;68277;52.724;6.516;2023-12-20T05:28:08;101184.81;;;5.77;100.00
78671;BME280;68277;52.724;6.516;2023-12-20T05:30:34;101176.94;;;5.76;100.00
78671;BME280;68277;52.724;6.516;2023-12-20T05:32:59;101202.41;;;5.95;100.00
78671;BME280;68277;52.724;6.516;2023-12-20T05:35:28;101173.50;;;5.90;100.00
78671;BME280;68277;52.724;6.516;2023-12-20T05:37:53;101185.78;;;5.97;100.00
78671;BME280;68277;52.724;6.516;2023-12-20T05:40:19;101170.84;;;5.84;100.00
78671;BME280;68277;52.724;6.516;2023-12-20T05:42:44;101158.56;;;5.77;100.00
78671;BME280;68277;52.724;6.516;2023-12-20T05:45:10;101170.88;;;5.92;100.00
78671;BME280;68277;52.724;6.516;2023-12-20T05:47:36;101207.72;;;6.10;100.00
78671;BME280;68277;52.724;6.516;2023-12-20T05:50:02;101184.91;;;6.01;100.00
78671;BME280;68277;52.724;6.516;2023-12-20T05:52:28;101194.56;;;6.10;100.00
78671;BME280;68277;52.724;6.516;2023-12-20T05:54:53;101180.53;;;5.99;100.00
78671;BME280;68277;52.724;6.516;2023-12-20T05:57:19;101176.16;;;6.07;100.00
78671;BME280;68277;52.724;6.516;2023-12-20T05:59:44;101164.78;;;6.00;100.00
78671;BME280;68277;52.724;6.516;2023-12-20T06:02:10;101133.19;;;5.84;100.00
78671;BME280;68277;52.724;6.516;2023-12-20T06:04:35;101154.28;;;6.00;100.00
78671;BME280;68277;52.724;6.516;2023-12-20T06:07:01;101147.25;;;5.98;100.00
78671;BME280;68277;52.724;6.516;2023-12-20T06:09:27;101139.38;;;5.93;100.00
78671;BME280;68277;52.724;6.516;2023-12-20T06:11:52;101169.16;;;6.09;100.00
78671;BME280;68277;52.724;6.516;2023-12-20T06:14:18;101141.09;;;5.96;100.00
78671;BME280;68277;52.724;6.516;2023-12-20T06:16:43;101163.03;;;6.14;100.00
78671;BME280;68277;52.724;6.516;2023-12-20T06:19:10;101128.88;;;5.99;100.00
78671;BME280;68277;52.724;6.516;2023-12-20T06:21:35;101164.81;;;6.17;100.00
78671;BME280;68277;52.724;6.516;2023-12-20T06:24:01;101137.63;;;6.00;100.00
78671;BME280;68277;52.724;6.516;2023-12-20T06:26:27;101167.41;;;6.20;100.00
78671;BME280;68277;52.724;6.516;2023-12-20T06:28:52;101162.16;;;6.25;100.00
78671;BME280;68277;52.724;6.516;2023-12-20T06:31:18;101161.28;;;6.27;100.00
78671;BME280;68277;52.724;6.516;2023-12-20T06:33:44;101149.88;;;6.17;100.00
78671;BME280;68277;52.724;6.516;2023-12-20T06:36:13;101161.28;;;6.27;100.00
78671;BME280;68277;52.724;6.516;2023-12-20T06:38:39;101156.91;;;6.29;100.00
78671;BME280;68277;52.724;6.516;2023-12-20T06:41:05;101115.72;;;6.04;100.00
78671;BME280;68277;52.724;6.516;2023-12-20T06:43:31;101127.13;;;6.10;100.00
78671;BME280;68277;52.724;6.516;2023-12-20T06:45:58;101131.50;;;6.13;100.00
78671;BME280;68277;52.724;6.516;2023-12-20T06:48:23;101136.75;;;6.16;100.00
78671;BME280;68277;52.724;6.516;2023-12-20T06:50:49;101135.00;;;6.13;100.00
78671;BME280;68277;52.724;6.516;2023-12-20T06:53:14;101163.94;;;6.33;100.00
78671;BME280;68277;52.724;6.516;2023-12-20T06:55:40;101122.72;;;6.20;100.00
78671;BME280;68277;52.724;6.516;2023-12-20T06:58:05;101131.50;;;6.17;100.00
78671;BME280;68277;52.724;6.516;2023-12-20T07:00:32;101135.88;;;6.26;100.00
78671;BME280;68277;52.724;6.516;2023-12-20T07:02:58;101131.50;;;6.24;100.00
78671;BME280;68277;52.724;6.516;2023-12-20T07:05:24;101130.63;;;6.31;100.00
78671;BME280;68277;52.724;6.516;2023-12-20T07:07:50;101107.84;;;6.30;100.00
78671;BME280;68277;52.724;6.516;2023-12-20T07:10:18;101108.72;;;6.30;100.00
78671;BME280;68277;52.724;6.516;2023-12-20T07:12:44;101130.63;;;6.38;100.00
78671;BME280;68277;52.724;6.516;2023-12-20T07:15:10;101080.72;;;6.17;100.00
78671;BME280;68277;52.724;6.516;2023-12-20T07:17:35;101085.94;;;6.15;100.00
78671;BME280;68277;52.724;6.516;2023-12-20T07:20:01;101125.34;;;6.37;100.00
78671;BME280;68277;52.724;6.516;2023-12-20T07:22:33;101100.84;;;6.22;100.00
78671;BME280;68277;52.724;6.516;2023-12-20T07:24:59;101105.22;;;6.36;100.00
78671;BME280;68277;52.724;6.516;2023-12-20T07:27:25;101101.72;;;6.31;100.00
78671;BME280;68277;52.724;6.516;2023-12-20T07:29:51;101113.09;;;6.36;100.00
78671;BME280;68277;52.724;6.516;2023-12-20T07:32:16;101128.84;;;6.49;100.00
78671;BME280;68277;52.724;6.516;2023-12-20T07:34:43;101125.34;;;6.49;100.00
78671;BME280;68277;52.724;6.516;2023-12-20T07:37:09;101079.84;;;6.24;100.00
78671;BME280;68277;52.724;6.516;2023-12-20T07:39:39;101116.56;;;6.48;100.00
78671;BME280;68277;52.724;6.516;2023-12-20T07:42:05;101114.81;;;6.46;100.00
78671;BME280;68277;52.724;6.516;2023-12-20T07:44:31;101083.31;;;6.29;100.00
78671;BME280;68277;52.724;6.516;2023-12-20T07:46:57;101091.19;;;6.35;100.00
78671;BME280;68277;52.724;6.516;2023-12-20T07:49:23;101113.09;;;6.45;100.00
78671;BME280;68277;52.724;6.516;2023-12-20T07:51:48;101138.50;;;6.56;100.00
78671;BME280;68277;52.724;6.516;2023-12-20T07:54:15;101105.22;;;6.30;100.00
78671;BME280;68277;52.724;6.516;2023-12-20T07:56:41;101158.63;;;6.53;100.00
78671;BME280;68277;52.724;6.516;2023-12-20T07:59:07;101113.09;;;6.27;100.00
78671;BME280;68277;52.724;6.516;2023-12-20T08:01:32;101163.91;;;6.48;100.00
78671;BME280;68277;52.724;6.516;2023-12-20T08:03:58;101138.47;;;6.46;100.00
78671;BME280;68277;52.724;6.516;2023-12-20T08:06:23;101122.72;;;6.41;100.00
78671;BME280;68277;52.724;6.516;2023-12-20T08:08:49;101169.16;;;6.59;100.00
78671;BME280;68277;52.724;6.516;2023-12-20T08:11:14;101089.47;;;6.16;100.00
78671;BME280;68277;52.724;6.516;2023-12-20T08:13:40;101121.84;;;6.41;100.00
78671;BME280;68277;52.724;6.516;2023-12-20T08:16:06;101115.72;;;6.37;100.00
78671;BME280;68277;52.724;6.516;2023-12-20T08:18:31;101143.75;;;6.53;100.00
78671;BME280;68277;52.724;6.516;2023-12-20T08:20:57;101122.75;;;6.43;100.00
78671;BME280;68277;52.724;6.516;2023-12-20T08:23:22;101128.84;;;6.49;100.00
78671;BME280;68277;52.724;6.516;2023-12-20T08:25:49;101133.22;;;6.59;100.00
78671;BME280;68277;52.724;6.516;2023-12-20T08:28:14;101106.94;;;6.44;100.00
78671;BME280;68277;52.724;6.516;2023-12-20T08:30:40;101110.47;;;6.52;100.00
78671;BME280;68277;52.724;6.516;2023-12-20T08:33:06;101111.28;;;6.57;100.00
78671;BME280;68277;52.724;6.516;2023-12-20T08:35:36;101091.16;;;6.49;100.00
78671;BME280;68277;52.724;6.516;2023-12-20T08:38:02;101138.41;;;6.83;100.00
78671;BME280;68277;52.724;6.516;2023-12-20T08:40:29;101127.03;;;6.74;100.00
78671;BME280;68277;52.724;6.516;2023-12-20T08:42:55;101124.41;;;6.80;100.00
78671;BME280;68277;52.724;6.516;2023-12-20T08:45:20;101084.16;;;6.57;100.00
78671;BME280;68277;52.724;6.516;2023-12-20T08:47:46;101120.91;;;6.82;100.00
78671;BME280;68277;52.724;6.516;2023-12-20T08:50:12;101135.78;;;6.94;100.00
78671;BME280;68277;52.724;6.516;2023-12-20T08:52:37;101106.91;;;6.73;100.00
78671;BME280;68277;52.724;6.516;2023-12-20T08:55:03;101120.00;;;6.83;100.00
78671;BME280;68277;52.724;6.516;2023-12-20T08:57:29;101141.03;;;6.97;100.00
78671;BME280;68277;52.724;6.516;2023-12-20T08:59:57;101117.41;;;6.85;100.00
78671;BME280;68277;52.724;6.516;2023-12-20T09:02:23;101148.03;;;7.04;100.00
78671;BME280;68277;52.724;6.516;2023-12-20T09:04:48;101142.75;;;7.06;100.00
78671;BME280;68277;52.724;6.516;2023-12-20T09:07:24;101105.09;;;6.85;100.00
78671;BME280;68277;52.724;6.516;2023-12-20T09:09:50;101106.00;;;6.87;100.00
78671;BME280;68277;52.724;6.516;2023-12-20T09:12:18;101150.63;;;7.15;100.00
78671;BME280;68277;52.724;6.516;2023-12-20T09:14:45;101110.31;;;7.01;100.00
78671;BME280;68277;52.724;6.516;2023-12-20T09:17:10;101126.94;;;7.10;100.00
78671;BME280;68277;52.724;6.516;2023-12-20T09:19:40;101149.66;;;7.28;100.00
78671;BME280;68277;52.724;6.516;2023-12-20T09:22:06;101130.41;;;7.23;100.00
78671;BME280;68277;52.724;6.516;2023-12-20T09:24:31;101115.53;;;7.07;100.00
78671;BME280;68277;52.724;6.516;2023-12-20T09:26:57;101126.94;;;7.15;100.00
78671;BME280;68277;52.724;6.516;2023-12-20T09:29:23;101143.53;;;7.30;100.00
78671;BME280;68277;52.724;6.516;2023-12-20T09:31:50;101146.19;;;7.21;100.00
78671;BME280;68277;52.724;6.516;2023-12-20T09:34:16;101146.19;;;7.21;100.00
78671;BME280;68277;52.724;6.516;2023-12-20T09:36:42;101119.09;;;7.01;100.00
78671;BME280;68277;52.724;6.516;2023-12-20T09:39:13;101130.44;;;7.09;100.00
78671;BME280;68277;52.724;6.516;2023-12-20T09:41:43;101121.63;;;7.19;100.00
78671;BME280;68277;52.724;6.516;2023-12-20T09:44:14;101108.44;;;7.28;100.00
78671;BME280;68277;52.724;6.516;2023-12-20T09:46:43;101139.88;;;7.60;100.00
78671;BME280;68277;52.724;6.516;2023-12-20T09:49:10;101130.22;;;7.62;100.00
78671;BME280;68277;52.724;6.516;2023-12-20T09:51:36;101150.34;;;7.71;100.00
78671;BME280;68277;52.724;6.516;2023-12-20T09:54:03;101123.25;;;7.49;100.00
78671;BME280;68277;52.724;6.516;2023-12-20T09:56:29;101139.94;;;7.51;100.00
78671;BME280;68277;52.724;6.516;2023-12-20T09:58:56;101152.16;;;7.64;100.00
78671;BME280;68277;52.724;6.516;2023-12-20T10:01:22;101130.25;;;7.51;100.00
78671;BME280;68277;52.724;6.516;2023-12-20T10:03:50;101099.69;;;7.22;100.00
78671;BME280;68277;52.724;6.516;2023-12-20T10:06:36;101162.81;;;7.37;100.00
78671;BME280;68277;52.724;6.516;2023-12-20T10:09:01;101162.03;;;7.12;100.00
78671;BME280;68277;52.724;6.516;2023-12-20T10:11:27;101213.78;;;7.19;100.00
78671;BME280;68277;52.724;6.516;2023-12-20T10:13:59;101212.94;;;6.99;100.00
78671;BME280;68277;52.724;6.516;2023-12-20T10:16:28;101226.97;;;6.83;100.00
78671;BME280;68277;52.724;6.516;2023-12-20T10:18:54;101201.59;;;6.53;100.00
78671;BME280;68277;52.724;6.516;2023-12-20T10:21:20;101184.97;;;6.33;100.00
78671;BME280;68277;52.724;6.516;2023-12-20T10:23:46;101197.19;;;6.27;100.00
78671;BME280;68277;52.724;6.516;2023-12-20T10:26:26;101205.09;;;6.19;100.00
78671;BME280;68277;52.724;6.516;2023-12-20T10:28:56;101241.03;;;6.26;100.00
78671;BME280;68277;52.724;6.516;2023-12-20T10:31:28;101219.09;;;6.21;100.00
78671;BME280;68277;52.724;6.516;2023-12-20T10:33:56;101227.88;;;6.18;100.00
78671;BME280;68277;52.724;6.516;2023-12-20T10:36:23;101204.19;;;6.03;100.00
78671;BME280;68277;52.724;6.516;2023-12-20T10:38:50;101183.16;;;5.94;100.00
78671;BME280;68277;52.724;6.516;2023-12-20T10:41:24;101179.63;;;5.94;100.00
78671;BME280;68277;52.724;6.516;2023-12-20T10:43:51;101134.94;;;5.70;100.00
78671;BME280;68277;52.724;6.516;2023-12-20T10:46:19;101222.59;;;6.14;100.00
78671;BME280;68277;52.724;6.516;2023-12-20T10:48:45;101184.91;;;5.97;100.00
78671;BME280;68277;52.724;6.516;2023-12-20T10:51:11;101212.09;;;6.15;100.00
78671;BME280;68277;52.724;6.516;2023-12-20T10:53:38;101160.38;;;5.99;100.00
78671;BME280;68277;52.724;6.516;2023-12-20T10:56:06;101179.69;;;6.13;100.00
78671;BME280;68277;52.724;6.516;2023-12-20T10:58:33;101132.34;;;5.88;100.00
78671;BME280;68277;52.724;6.516;2023-12-20T11:01:02;101148.16;;;6.03;100.00
78671;BME280;68277;52.724;6.516;2023-12-20T11:03:32;101176.16;;;6.13;100.00
78671;BME280;68277;52.724;6.516;2023-12-20T11:06:03;101165.66;;;6.07;100.00
78671;BME280;68277;52.724;6.516;2023-12-20T11:11:30;101164.78;;;6.02;100.00
78671;BME280;68277;52.724;6.516;2023-12-20T11:14:02;101177.06;;;6.07;100.00
78671;BME280;68277;52.724;6.516;2023-12-20T11:16:31;101164.75;;;5.99;100.00
78671;BME280;68277;52.724;6.516;2023-12-20T11:18:57;101169.16;;;6.03;100.00
78671;BME280;68277;52.724;6.516;2023-12-20T11:21:22;101157.75;;;6.01;100.00
78671;BME280;68277;52.724;6.516;2023-12-20T11:23:48;101145.50;;;5.94;100.00
78671;BME280;68277;52.724;6.516;2023-12-20T11:26:15;101171.81;;;6.12;100.00
78671;BME280;68277;52.724;6.516;2023-12-20T11:28:42;101150.78;;;6.03;100.00
78671;BME280;68277;52.724;6.516;2023-12-20T11:31:08;101154.28;;;6.17;100.00
78671;BME280;68277;52.724;6.516;2023-12-20T11:33:37;101166.53;;;6.30;100.00
78671;BME280;68277;52.724;6.516;2023-12-20T11:36:03;101167.41;;;6.34;100.00
78671;BME280;68277;52.724;6.516;2023-12-20T11:38:36;101159.53;;;6.31;100.00
78671;BME280;68277;52.724;6.516;2023-12-20T11:41:05;101147.25;;;6.27;100.00
78671;BME280;68277;52.724;6.516;2023-12-20T11:43:36;101122.75;;;6.11;100.00
78671;BME280;68277;52.724;6.516;2023-12-20T11:46:06;101170.06;;;6.38;100.00
78671;BME280;68277;52.724;6.516;2023-12-20T11:48:36;101167.41;;;6.37;100.00
78671;BME280;68277;52.724;6.516;2023-12-20T11:51:02;101138.50;;;6.20;100.00
78671;BME280;68277;52.724;6.516;2023-12-20T11:53:29;101167.41;;;6.32;100.00
78671;BME280;68277;52.724;6.516;2023-12-20T11:55:57;101135.91;;;6.17;100.00
78671;BME280;68277;52.724;6.516;2023-12-20T11:58:22;101143.75;;;6.15;100.00
78671;BME280;68277;52.724;6.516;2023-12-20T12:00:49;101160.41;;;6.22;100.00
78671;BME280;68277;52.724;6.516;2023-12-20T12:03:15;101139.38;;;6.13;100.00
78671;BME280;68277;52.724;6.516;2023-12-20T12:05:41;101135.00;;;6.15;100.00
78671;BME280;68277;52.724;6.516;2023-12-20T12:08:07;101112.22;;;6.08;100.00
78671;BME280;68277;52.724;6.516;2023-12-20T12:10:34;101142.88;;;6.32;100.00
78671;BME280;68277;52.724;6.516;2023-12-20T12:13:00;101139.38;;;6.34;100.00
78671;BME280;68277;52.724;6.516;2023-12-20T12:15:26;101131.50;;;6.34;100.00
78671;BME280;68277;52.724;6.516;2023-12-20T12:17:55;101084.22;;;6.07;100.00
78671;BME280;68277;52.724;6.516;2023-12-20T12:20:21;101099.94;;;6.22;100.00
78671;BME280;68277;52.724;6.516;2023-12-20T12:23:00;101080.69;;;6.12;100.00
78671;BME280;68277;52.724;6.516;2023-12-20T12:25:26;101092.94;;;6.15;100.00
78671;BME280;68277;52.724;6.516;2023-12-20T12:27:52;101121.84;;;6.32;100.00
78671;BME280;68277;52.724;6.516;2023-12-20T12:30:18;101109.59;;;6.23;100.00
78671;BME280;68277;52.724;6.516;2023-12-20T12:32:44;101099.97;;;6.14;100.00
78671;BME280;68277;52.724;6.516;2023-12-20T12:35:10;101128.00;;;6.25;100.00
78671;BME280;68277;52.724;6.516;2023-12-20T12:37:58;101110.47;;;6.13;100.00
78671;BME280;68277;52.724;6.516;2023-12-20T12:40:25;101094.72;;;6.04;100.00
78671;BME280;68277;52.724;6.516;2023-12-20T12:42:51;101091.19;;;6.03;100.00
78671;BME280;68277;52.724;6.516;2023-12-20T12:45:16;101092.09;;;5.98;100.00
78671;BME280;68277;52.724;6.516;2023-12-20T12:47:42;101101.72;;;5.99;100.00
78671;BME280;68277;52.724;6.516;2023-12-20T12:50:08;101099.09;;;5.97;100.00